Time;durP1;ratioP1;P1;durP2;ratioP2;P2;SDS_P1;SDS_P2;PMS_P1;PMS_P2;Temp;Humidity;BMP_temperature;BMP_pressure;BME280_temperature;BME280_humidity;BME280_pressure;Samples;Min_cycle;Max_cycle;Signal;HPM_P1;HPM_P2
2024/02/27 00:00:37;;;;;;;;;;;;;;;;;;5066351;28;19912;-78
2024/02/27 00:03:03;;;;;;;;;;;;;;;;;;5064464;28;20010;-79
2024/02/27 00:05:29;;;;;;;;;;;;;;;;;;5066824;28;19931;-78
2024/02/27 00:07:55;;;;;;;;;;;;;;;;;;5067275;28;19913;-77
2024/02/27 00:10:21;;;;;;;;;;;;;;;;;;5068185;28;19921;-78
2024/02/27 00:12:47;;;;;;;;;;;;;;;;;;5072631;28;19920;-78
2024/02/27 00:15:13;;;;;;;;;;;;;;;;;;5073913;28;19941;-78
2024/02/27 00:17:39;;;;;;;;;;;;;;;;;;5069284;28;19962;-77
2024/02/27 00:20:07;;;;;;;;;;;;;;;;;;5066308;28;20577;-80
2024/02/27 00:22:34;;;;;;;;;;;;;;;;;;5071002;28;19917;-78
2024/02/27 00:25:00;;;;;;;;;;;;;;;;;;5070956;28;19978;-77
2024/02/27 00:27:25;;;;;;;;;;;;;;;;;;5065838;28;19912;-78
2024/02/27 00:29:51;;;;;;;;;;;;;;;;;;5066227;28;19917;-78
2024/02/27 00:32:17;;;;;;;;;;;;;;;;;;5065984;28;19923;-78
2024/02/27 00:34:43;;;;;;;;;;;;;;;;;;5073568;28;20389;-78
2024/02/27 00:37:09;;;;;;;;;;;;;;;;;;5073520;28;19913;-78
2024/02/27 00:39:35;;;;;;;;;;;;;;;;;;5065876;28;19913;-80
2024/02/27 00:42:02;;;;;;;;;;;;;;;;;;5064326;28;20015;-80
2024/02/27 00:44:28;;;;;;;;;;;;;;;;;;5065673;28;19919;-80
2024/02/27 00:46:54;;;;;;;;;;;;;;;;;;5063883;28;20294;-80
2024/02/27 00:49:19;;;;;;;;;;;;;;;;;;5065440;28;19912;-80
2024/02/27 00:51:45;;;;;;;;;;;;;;;;;;5064748;28;20000;-80
2024/02/27 00:54:11;;;;;;;;;;;;;;;;;;5067414;28;19923;-80
2024/02/27 00:56:37;;;;;;;;;;;;;;;;;;5064991;28;20287;-80
2024/02/27 00:59:03;;;;;;;;;;;;;;;;;;5066428;28;19921;-78
2024/02/27 01:01:29;;;;;;;;;;;;;;;;;;5070165;28;19974;-80
2024/02/27 01:03:55;;;;;;;;;;;;;;;;;;5068855;28;19923;-80
2024/02/27 01:06:21;;;;;;;;;;;;;;;;;;5073331;28;19913;-80
2024/02/27 01:08:47;;;;;;;;;;;;;;;;;;5073323;28;19916;-80
2024/02/27 01:11:12;;;;;;;;;;;;;;;;;;5072186;28;20270;-80
2024/02/27 01:13:38;;;;;;;;;;;;;;;;;;5068721;28;20410;-80
2024/02/27 01:16:04;;;;;;;;;;;;;;;;;;5071108;28;19931;-80
2024/02/27 01:18:30;;;;;;;;;;;;;;;;;;5071095;28;20009;-80
2024/02/27 01:20:56;;;;;;;;;;;;;;;;;;5071562;28;19917;-80
2024/02/27 01:23:22;;;;;;;;;;;;;;;;;;5074177;28;20359;-80
2024/02/27 01:25:47;;;;;;;;;;;;;;;;;;5076762;28;20420;-80
2024/02/27 01:28:13;;;;;;;;;;;;;;;;;;5071352;28;19913;-80
2024/02/27 01:30:39;;;;;;;;;;;;;;;;;;5068934;28;19935;-80
2024/02/27 01:33:05;;;;;;;;;;;;;;;;;;5070802;28;19916;-79
2024/02/27 01:35:31;;;;;;;;;;;;;;;;;;5067416;28;19970;-80
2024/02/27 01:37:57;;;;;;;;;;;;;;;;;;5070086;28;20282;-79
2024/02/27 01:40:23;;;;;;;;;;;;;;;;;;5082309;28;20419;-80
2024/02/27 01:42:49;;;;;;;;;;;;;;;;;;5075379;28;20664;-80
2024/02/27 01:45:14;;;;;;;;;;;;;;;;;;5070209;28;19913;-80
2024/02/27 01:47:40;;;;;;;;;;;;;;;;;;5071393;28;19962;-80
2024/02/27 01:50:06;;;;;;;;;;;;;;;;;;5070378;28;20020;-80
2024/02/27 01:52:32;;;;;;;;;;;;;;;;;;5071202;28;19916;-80
2024/02/27 01:54:58;;;;;;;;;;;;;;;;;;5069983;28;19912;-80
2024/02/27 01:57:23;;;;;;;;;;;;;;;;;;5073512;28;19983;-80
2024/02/27 01:59:49;;;;;;;;;;;;;;;;;;5072515;28;19920;-80
2024/02/27 02:02:15;;;;;;;;;;;;;;;;;;5071666;28;20470;-80
2024/02/27 02:04:41;;;;;;;;;;;;;;;;;;5076010;28;20482;-80
2024/02/27 02:07:07;;;;;;;;;;;;;;;;;;5070697;28;20049;-80
2024/02/27 02:09:33;;;;;;;;;;;;;;;;;;5071431;28;19966;-80
2024/02/27 02:11:59;;;;;;;;;;;;;;;;;;5074546;28;19920;-78
2024/02/27 02:14:25;;;;;;;;;;;;;;;;;;5070448;28;19924;-80
2024/02/27 02:16:50;;;;;;;;;;;;;;;;;;5069387;28;19912;-80
2024/02/27 02:19:16;;;;;;;;;;;;;;;;;;5073020;28;19918;-78
2024/02/27 02:21:42;;;;;;;;;;;;;;;;;;5073301;28;19921;-80
2024/02/27 02:24:08;;;;;;;;;;;;;;;;;;5075845;28;19923;-80
2024/02/27 02:26:34;;;;;;;;;;;;;;;;;;5071111;28;19920;-80
2024/02/27 02:29:00;;;;;;;;;;;;;;;;;;5070322;28;19948;-80
2024/02/27 02:31:26;;;;;;;;;;;;;;;;;;5068905;28;20290;-80
2024/02/27 02:33:51;;;;;;;;;;;;;;;;;;5069162;28;19913;-80
2024/02/27 02:36:17;;;;;;;;;;;;;;;;;;5069157;28;19912;-80
2024/02/27 02:38:43;;;;;;;;;;;;;;;;;;5074719;28;19920;-80
2024/02/27 02:41:09;;;;;;;;;;;;;;;;;;5071184;28;19912;-80
2024/02/27 02:43:35;;;;;;;;;;;;;;;;;;5069237;28;19970;-80
2024/02/27 02:46:01;;;;;;;;;;;;;;;;;;5072222;28;20066;-80
2024/02/27 02:48:27;;;;;;;;;;;;;;;;;;5068396;28;19947;-80
2024/02/27 02:50:52;;;;;;;;;;;;;;;;;;5067973;28;20428;-80
2024/02/27 02:53:18;;;;;;;;;;;;;;;;;;5066154;28;20380;-80
2024/02/27 02:55:45;;;;;;;;;;;;;;;;;;5070452;28;19935;-80
2024/02/27 02:58:11;;;;;;;;;;;;;;;;;;5066931;28;19916;-80
2024/02/27 03:00:37;;;;;;;;;;;;;;;;;;5067515;28;19920;-80
2024/02/27 03:03:03;;;;;;;;;;;;;;;;;;5068006;28;19962;-80
2024/02/27 03:05:28;;;;;;;;;;;;;;;;;;5070572;28;19917;-80
2024/02/27 03:07:54;;;;;;;;;;;;;;;;;;5069179;28;19920;-80
2024/02/27 03:10:20;;;;;;;;;;;;;;;;;;5080329;28;19919;-80
2024/02/27 03:12:46;;;;;;;;;;;;;;;;;;5068231;28;20398;-80
2024/02/27 03:15:12;;;;;;;;;;;;;;;;;;5067991;28;20294;-80
2024/02/27 03:17:38;;;;;;;;;;;;;;;;;;5068199;28;19912;-80
2024/02/27 03:20:05;;;;;;;;;;;;;;;;;;5071990;28;19912;-80
2024/02/27 03:22:31;;;;;;;;;;;;;;;;;;5075688;28;19942;-80
2024/02/27 03:24:57;;;;;;;;;;;;;;;;;;5068291;28;20374;-79
2024/02/27 03:27:23;;;;;;;;;;;;;;;;;;5069337;28;20297;-80
2024/02/27 03:29:48;;;;;;;;;;;;;;;;;;5073575;28;20334;-80
2024/02/27 03:32:14;;;;;;;;;;;;;;;;;;5071115;28;20393;-80
2024/02/27 03:34:40;;;;;;;;;;;;;;;;;;5051304;28;19913;-80
2024/02/27 03:37:06;;;;;;;;;;;;;;;;;;5071711;28;19920;-80
2024/02/27 03:39:32;;;;;;;;;;;;;;;;;;5067575;28;19918;-80
2024/02/27 03:41:58;;;;;;;;;;;;;;;;;;5068761;28;19920;-80
2024/02/27 03:44:24;;;;;;;;;;;;;;;;;;5069826;28;19920;-80
2024/02/27 03:46:50;;;;;;;;;;;;;;;;;;5063738;28;19959;-80
2024/02/27 03:49:16;;;;;;;;;;;;;;;;;;5071810;28;20362;-80
2024/02/27 03:51:42;;;;;;;;;;;;;;;;;;5071864;28;20014;-79
2024/02/27 03:54:07;;;;;;;;;;;;;;;;;;5067639;28;19916;-80
2024/02/27 03:56:33;;;;;;;;;;;;;;;;;;5070385;28;20003;-79
2024/02/27 03:58:59;;;;;;;;;;;;;;;;;;5068534;28;19967;-80
2024/02/27 04:01:26;;;;;;;;;;;;;;;;;;5070207;28;19916;-80
2024/02/27 04:03:52;;;;;;;;;;;;;;;;;;5067879;28;19921;-80
2024/02/27 04:06:18;;;;;;;;;;;;;;;;;;5071140;28;19919;-80
2024/02/27 04:08:44;;;;;;;;;;;;;;;;;;5070278;28;19913;-80
2024/02/27 04:11:10;;;;;;;;;;;;;;;;;;5077847;28;19948;-80
2024/02/27 04:13:36;;;;;;;;;;;;;;;;;;5071893;28;19908;-80
2024/02/27 04:16:02;;;;;;;;;;;;;;;;;;5082145;28;19919;-80
2024/02/27 04:18:28;;;;;;;;;;;;;;;;;;5070307;28;19912;-80
2024/02/27 04:20:54;;;;;;;;;;;;;;;;;;5069943;28;19927;-80
2024/02/27 04:23:20;;;;;;;;;;;;;;;;;;5070034;28;19912;-80
2024/02/27 04:25:45;;;;;;;;;;;;;;;;;;5077621;28;19912;-80
2024/02/27 04:28:11;;;;;;;;;;;;;;;;;;5076094;28;20011;-79
2024/02/27 04:30:37;;;;;;;;;;;;;;;;;;5067204;28;19912;-79
2024/02/27 04:33:06;;;;;;;;;;;;;;;;;;5067665;28;19935;-80
2024/02/27 04:35:32;;;;;;;;;;;;;;;;;;5067081;28;20024;-79
2024/02/27 04:37:58;;;;;;;;;;;;;;;;;;5066063;28;19994;-79
2024/02/27 04:40:25;;;;;;;;;;;;;;;;;;5065834;28;19916;-79
2024/02/27 04:42:51;;;;;;;;;;;;;;;;;;5066223;28;19916;-79
2024/02/27 04:45:17;;;;;;;;;;;;;;;;;;5066764;28;20294;-81
2024/02/27 04:47:43;;;;;;;;;;;;;;;;;;5069214;28;20294;-79
2024/02/27 04:50:09;;;;;;;;;;;;;;;;;;5071518;28;19964;-78
2024/02/27 04:52:34;;;;;;;;;;;;;;;;;;5070653;28;20016;-80
2024/02/27 04:55:00;;;;;;;;;;;;;;;;;;5075488;28;19970;-78
2024/02/27 04:57:26;;;;;;;;;;;;;;;;;;5067887;28;19913;-78
2024/02/27 04:59:52;;;;;;;;;;;;;;;;;;5069056;28;19959;-79
2024/02/27 05:02:18;;;;;;;;;;;;;;;;;;5071585;28;20379;-79
2024/02/27 05:04:44;;;;;;;;;;;;;;;;;;5068946;28;20617;-79
2024/02/27 05:07:09;;;;;;;;;;;;;;;;;;5068480;28;20726;-79
2024/02/27 05:09:35;;;;;;;;;;;;;;;;;;5078231;28;19935;-78
2024/02/27 05:12:01;;;;;;;;;;;;;;;;;;5073869;28;19913;-79
2024/02/27 05:14:27;;;;;;;;;;;;;;;;;;5071953;28;20285;-80
2024/02/27 05:16:53;;;;;;;;;;;;;;;;;;5076246;28;19913;-79
2024/02/27 05:19:19;;;;;;;;;;;;;;;;;;5072536;28;19912;-79
2024/02/27 05:21:45;;;;;;;;;;;;;;;;;;5072426;28;19913;-78
2024/02/27 05:24:11;;;;;;;;;;;;;;;;;;5069400;28;20393;-79
2024/02/27 05:26:37;;;;;;;;;;;;;;;;;;5075572;28;19916;-79
2024/02/27 05:29:12;;;;;;;;;;;;;;;;;;5070989;28;19989;-80
2024/02/27 05:31:38;;;;;;;;;;;;;;;;;;5069946;28;19951;-82
2024/02/27 05:34:04;;;;;;;;;;;;;;;;;;5071281;28;20026;-77
2024/02/27 05:36:30;;;;;;;;;;;;;;;;;;5070874;28;20115;-79
2024/02/27 05:38:56;;;;;;;;;;;;;;;;;;5070165;28;19917;-78
2024/02/27 05:41:22;;;;;;;;;;;;;;;;;;5069722;28;19943;-78
2024/02/27 05:43:47;;;;;;;;;;;;;;;;;;5070979;28;19917;-78
2024/02/27 05:46:13;;;;;;;;;;;;;;;;;;5072397;28;20400;-78
2024/02/27 05:48:39;;;;;;;;;;;;;;;;;;5067145;28;20011;-78
2024/02/27 05:51:05;;;;;;;;;;;;;;;;;;5085376;28;19965;-77
2024/02/27 05:53:31;;;;;;;;;;;;;;;;;;5070797;28;19920;-80
2024/02/27 05:55:57;;;;;;;;;;;;;;;;;;5070184;28;19917;-78
2024/02/27 05:58:26;;;;;;;;;;;;;;;;;;5069257;28;19923;-77
2024/02/27 06:00:52;;;;;;;;;;;;;;;;;;5071786;28;19915;-76
2024/02/27 06:03:18;;;;;;;;;;;;;;;;;;5070112;28;19920;-77
2024/02/27 06:05:44;;;;;;;;;;;;;;;;;;5076797;28;19965;-77
2024/02/27 06:08:10;;;;;;;;;;;;;;;;;;5079955;28;20583;-80
2024/02/27 06:10:35;;;;;;;;;;;;;;;;;;5083303;28;20593;-81
2024/02/27 06:13:01;;;;;;;;;;;;;;;;;;5069028;28;19916;-88
2024/02/27 06:15:27;;;;;;;;;;;;;;;;;;5070023;28;20003;-79
2024/02/27 06:19:55;;;;;;;;;;;;;;;;;;5101063;27;19957;-82
2024/02/27 06:22:23;;;;;;;;;;;;;;;;;;5099413;28;20398;-82
2024/02/27 06:24:49;;;;;;;;;;;;;;;;;;5081173;28;19920;-82
2024/02/27 06:27:15;;;;;;;;;;;;;;;;;;5084015;28;20326;-81
2024/02/27 06:29:41;;;;;;;;;;;;;;;;;;5083684;28;19916;-82
2024/02/27 06:32:10;;;;;;;;;;;;;;;;;;5085286;28;19932;-82
2024/02/27 06:34:35;;;;;;;;;;;;;;;;;;5078958;28;19915;-82
2024/02/27 06:37:01;;;;;;;;;;;;;;;;;;5075346;28;19912;-82
2024/02/27 06:39:27;;;;;;;;;;;;;;;;;;5075250;28;19924;-79
2024/02/27 06:41:53;;;;;;;;;;;;;;;;;;5097036;28;20003;-81
2024/02/27 06:44:19;;;;;;;;;;;;;;;;;;5085128;28;19920;-81
2024/02/27 06:46:45;;;;;;;;;;;;;;;;;;5085069;28;19916;-81
2024/02/27 06:49:10;;;;;;;;;;;;;;;;;;5078975;28;20159;-81
2024/02/27 06:51:36;;;;;;;;;;;;;;;;;;5064601;28;20399;-81
2024/02/27 06:54:03;;;;;;;;;;;;;;;;;;5064615;28;19909;-81
2024/02/27 06:56:28;;;;;;;;;;;;;;;;;;5064686;28;20386;-81
2024/02/27 06:58:55;;;;;;;;;;;;;;;;;;5059938;28;19917;-81
2024/02/27 07:01:21;;;;;;;;;;;;;;;;;;5064477;28;19921;-82
2024/02/27 07:03:47;;;;;;;;;;;;;;;;;;5061188;28;19931;-82
2024/02/27 07:06:13;;;;;;;;;;;;;;;;;;5064786;28;19913;-82
2024/02/27 07:08:39;;;;;;;;;;;;;;;;;;5059711;28;19909;-82
2024/02/27 07:11:06;;;;;;;;;;;;;;;;;;5065043;28;19912;-80
2024/02/27 07:13:32;;;;;;;;;;;;;;;;;;5064100;28;19909;-82
2024/02/27 07:15:58;;;;;;;;;;;;;;;;;;5063404;28;19917;-81
2024/02/27 07:18:24;;;;;;;;;;;;;;;;;;5062924;28;19927;-81
2024/02/27 07:20:50;;;;;;;;;;;;;;;;;;5062241;28;19948;-81
2024/02/27 07:23:15;;;;;;;;;;;;;;;;;;5053094;28;19943;-82
2024/02/27 07:25:41;;;;;;;;;;;;;;;;;;5064442;28;19966;-82
2024/02/27 07:28:07;;;;;;;;;;;;;;;;;;5064455;28;19962;-81
2024/02/27 07:30:34;;;;;;;;;;;;;;;;;;5050268;28;20299;-82
2024/02/27 07:32:59;;;;;;;;;;;;;;;;;;5047197;28;19992;-81
2024/02/27 07:35:26;;;;;;;;;;;;;;;;;;5040634;28;19996;-81
2024/02/27 07:37:52;;;;;;;;;;;;;;;;;;5047300;28;20374;-83
2024/02/27 07:40:18;;;;;;;;;;;;;;;;;;5048683;28;19923;-78
2024/02/27 07:42:44;;;;;;;;;;;;;;;;;;5036970;28;19921;-88
2024/02/27 07:45:10;;;;;;;;;;;;;;;;;;5040292;28;19917;-83
2024/02/27 07:47:35;;;;;;;;;;;;;;;;;;5050621;28;20291;-84
2024/02/27 07:50:01;;;;;;;;;;;;;;;;;;5049820;28;19916;-84
2024/02/27 07:52:27;;;;;;;;;;;;;;;;;;5050942;28;19912;-82
2024/02/27 07:54:53;;;;;;;;;;;;;;;;;;5049354;28;20493;-83
2024/02/27 07:57:21;;;;;;;;;;;;;;;;;;5049620;28;20382;-83
2024/02/27 07:59:47;;;;;;;;;;;;;;;;;;5038360;28;19927;-83
2024/02/27 08:02:13;;;;;;;;;;;;;;;;;;5050160;28;19916;-83
2024/02/27 08:04:39;;;;;;;;;;;;;;;;;;5049489;28;19960;-81
2024/02/27 08:07:05;;;;;;;;;;;;;;;;;;5051063;28;19912;-82
2024/02/27 08:09:32;;;;;;;;;;;;;;;;;;5045581;28;19923;-84
2024/02/27 08:11:58;;;;;;;;;;;;;;;;;;5049912;28;19948;-83
2024/02/27 08:14:25;;;;;;;;;;;;;;;;;;5049791;28;19953;-82
2024/02/27 08:16:51;;;;;;;;;;;;;;;;;;5053496;28;19924;-84
2024/02/27 08:19:17;;;;;;;;;;;;;;;;;;5044507;28;19921;-82
2024/02/27 08:21:43;;;;;;;;;;;;;;;;;;5052521;28;20401;-85
2024/02/27 08:24:12;;;;;;;;;;;;;;;;;;5057282;28;20332;-78
2024/02/27 08:26:37;;;;;;;;;;;;;;;;;;5049998;28;20371;-79
2024/02/27 08:29:03;;;;;;;;;;;;;;;;;;5047271;28;19919;-78
2024/02/27 08:31:29;;;;;;;;;;;;;;;;;;5048531;28;20122;-77
2024/02/27 08:33:56;;;;;;;;;;;;;;;;;;5049051;28;19912;-77
2024/02/27 08:36:25;;;;;;;;;;;;;;;;;;5048829;28;19959;-77
2024/02/27 08:38:50;;;;;;;;;;;;;;;;;;5049162;28;20032;-78
2024/02/27 08:41:20;;;;;;;;;;;;;;;;;;5045572;28;20363;-75
2024/02/27 08:43:46;;;;;;;;;;;;;;;;;;5036447;28;20479;-75
2024/02/27 08:46:12;;;;;;;;;;;;;;;;;;5047493;28;19920;-76
2024/02/27 08:48:38;;;;;;;;;;;;;;;;;;5048523;28;19958;-76
2024/02/27 08:51:03;;;;;;;;;;;;;;;;;;5048345;28;19913;-76
2024/02/27 08:53:29;;;;;;;;;;;;;;;;;;5046080;28;19913;-76
2024/02/27 08:55:55;;;;;;;;;;;;;;;;;;5048254;28;20283;-76
2024/02/27 08:58:21;;;;;;;;;;;;;;;;;;5048617;28;19920;-76
2024/02/27 09:00:47;;;;;;;;;;;;;;;;;;5042441;28;19917;-77
2024/02/27 09:03:13;;;;;;;;;;;;;;;;;;5041758;28;20114;-77
2024/02/27 09:05:42;;;;;;;;;;;;;;;;;;5047451;28;19920;-76
2024/02/27 09:08:08;;;;;;;;;;;;;;;;;;5035116;28;19924;-76
2024/02/27 09:10:37;;;;;;;;;;;;;;;;;;5041776;28;19917;-76
2024/02/27 09:13:03;;;;;;;;;;;;;;;;;;5043574;28;19912;-77
2024/02/27 09:15:28;;;;;;;;;;;;;;;;;;5038155;28;19928;-76
2024/02/27 09:17:54;;;;;;;;;;;;;;;;;;5047928;28;19928;-76
2024/02/27 09:20:20;;;;;;;;;;;;;;;;;;5046953;28;19913;-76
2024/02/27 09:22:46;;;;;;;;;;;;;;;;;;5042810;28;19917;-77
2024/02/27 09:25:13;;;;;;;;;;;;;;;;;;5046801;28;20393;-77
2024/02/27 09:27:39;;;;;;;;;;;;;;;;;;5043709;28;19913;-76
2024/02/27 09:30:05;;;;;;;;;;;;;;;;;;5047320;28;19967;-76
2024/02/27 09:32:31;;;;;;;;;;;;;;;;;;5045567;28;19913;-77
2024/02/27 09:34:57;;;;;;;;;;;;;;;;;;5046973;28;19956;-76
2024/02/27 09:37:26;;;;;;;;;;;;;;;;;;5048421;28;19958;-76
2024/02/27 09:39:53;;;;;;;;;;;;;;;;;;5032904;28;19919;-76
2024/02/27 09:42:19;;;;;;;;;;;;;;;;;;5036514;28;19917;-77
2024/02/27 09:44:45;;;;;;;;;;;;;;;;;;5047084;28;19966;-76
2024/02/27 09:47:11;;;;;;;;;;;;;;;;;;5048217;28;19923;-76
2024/02/27 09:49:38;;;;;;;;;;;;;;;;;;5048078;28;19916;-76
2024/02/27 09:52:03;;;;;;;;;;;;;;;;;;5047828;28;19912;-76
2024/02/27 09:54:29;;;;;;;;;;;;;;;;;;5041550;28;20003;-76
2024/02/27 09:56:55;;;;;;;;;;;;;;;;;;5048274;28;19913;-76
2024/02/27 09:59:21;;;;;;;;;;;;;;;;;;5048182;28;19920;-76
2024/02/27 10:01:47;;;;;;;;;;;;;;;;;;5048177;28;19912;-76
2024/02/27 10:04:13;;;;;;;;;;;;;;;;;;5046286;28;19944;-76
2024/02/27 10:06:38;;;;;;;;;;;;;;;;;;5043707;28;19913;-76
2024/02/27 10:09:04;;;;;;;;;;;;;;;;;;5047668;28;19909;-76
2024/02/27 10:11:30;;;;;;;;;;;;;;;;;;5047799;28;20314;-76
2024/02/27 10:13:56;;;;;;;;;;;;;;;;;;5048235;28;19921;-76
2024/02/27 10:16:22;;;;;;;;;;;;;;;;;;5047699;28;20363;-76
2024/02/27 10:18:48;;;;;;;;;;;;;;;;;;5047322;28;20463;-76
2024/02/27 10:21:14;;;;;;;;;;;;;;;;;;5048190;28;20260;-75
2024/02/27 10:23:40;;;;;;;;;;;;;;;;;;5046969;28;19958;-76
2024/02/27 10:26:06;;;;;;;;;;;;;;;;;;5042778;28;19917;-76
2024/02/27 10:28:32;;;;;;;;;;;;;;;;;;5047538;28;19987;-76
2024/02/27 10:30:58;;;;;;;;;;;;;;;;;;5047620;28;19944;-76
2024/02/27 10:33:23;;;;;;;;;;;;;;;;;;5047415;28;19959;-76
2024/02/27 10:35:49;;;;;;;;;;;;;;;;;;5045996;28;20023;-76
2024/02/27 10:38:15;;;;;;;;;;;;;;;;;;5047288;28;19921;-76
2024/02/27 10:40:41;;;;;;;;;;;;;;;;;;5047860;28;19917;-76
2024/02/27 10:43:07;;;;;;;;;;;;;;;;;;5043432;28;19920;-76
2024/02/27 10:45:33;;;;;;;;;;;;;;;;;;5061614;28;19913;-77
2024/02/27 10:47:59;;;;;;;;;;;;;;;;;;5047440;28;20054;-76
2024/02/27 10:50:26;;;;;;;;;;;;;;;;;;5047808;28;19916;-76
2024/02/27 10:52:52;;;;;;;;;;;;;;;;;;5047306;28;19912;-76
2024/02/27 10:55:18;;;;;;;;;;;;;;;;;;5047252;28;20041;-77
2024/02/27 10:57:44;;;;;;;;;;;;;;;;;;5047653;28;20390;-76
2024/02/27 11:00:11;;;;;;;;;;;;;;;;;;5047526;28;19909;-77
2024/02/27 11:02:39;;;;;;;;;;;;;;;;;;5047447;28;19909;-77
2024/02/27 11:05:05;;;;;;;;;;;;;;;;;;5035402;28;20009;-77
2024/02/27 11:07:31;;;;;;;;;;;;;;;;;;5050614;28;20442;-77
2024/02/27 11:09:57;;;;;;;;;;;;;;;;;;5050950;28;19920;-77
2024/02/27 11:12:23;;;;;;;;;;;;;;;;;;5051543;28;20153;-77
2024/02/27 11:14:48;;;;;;;;;;;;;;;;;;5050391;28;19916;-77
2024/02/27 11:17:15;;;;;;;;;;;;;;;;;;5050302;28;19916;-77
2024/02/27 11:19:41;;;;;;;;;;;;;;;;;;5050841;28;19921;-78
2024/02/27 11:22:07;;;;;;;;;;;;;;;;;;5051311;28;20378;-78
2024/02/27 11:24:32;;;;;;;;;;;;;;;;;;5050347;28;19913;-77
2024/02/27 11:26:58;;;;;;;;;;;;;;;;;;5051133;28;19919;-78
2024/02/27 11:29:24;;;;;;;;;;;;;;;;;;5051052;28;19916;-77
2024/02/27 11:31:50;;;;;;;;;;;;;;;;;;5050734;28;19913;-78
2024/02/27 11:34:16;;;;;;;;;;;;;;;;;;5050564;28;20011;-77
2024/02/27 11:36:42;;;;;;;;;;;;;;;;;;5038242;28;19912;-76
2024/02/27 11:39:07;;;;;;;;;;;;;;;;;;5050242;28;20020;-76
2024/02/27 11:41:33;;;;;;;;;;;;;;;;;;5045093;28;20261;-76
2024/02/27 11:43:59;;;;;;;;;;;;;;;;;;5044694;28;20290;-76
2024/02/27 11:46:25;;;;;;;;;;;;;;;;;;5044110;28;19913;-76
2024/02/27 11:48:51;;;;;;;;;;;;;;;;;;5050588;28;19951;-76
2024/02/27 11:51:17;;;;;;;;;;;;;;;;;;5050656;28;20022;-76
2024/02/27 11:53:43;;;;;;;;;;;;;;;;;;5050473;28;20294;-76
2024/02/27 11:56:09;;;;;;;;;;;;;;;;;;5047815;28;19912;-76
2024/02/27 11:58:35;;;;;;;;;;;;;;;;;;5050408;28;19913;-76
2024/02/27 12:01:01;;;;;;;;;;;;;;;;;;5050368;28;20257;-77
2024/02/27 12:03:27;;;;;;;;;;;;;;;;;;5050506;28;20476;-76
2024/02/27 12:05:54;;;;;;;;;;;;;;;;;;5049587;28;19951;-76
2024/02/27 12:08:21;;;;;;;;;;;;;;;;;;5050511;28;19974;-77
2024/02/27 12:10:47;;;;;;;;;;;;;;;;;;5049583;28;19917;-76
2024/02/27 12:13:12;;;;;;;;;;;;;;;;;;5049688;28;19912;-76
2024/02/27 12:15:38;;;;;;;;;;;;;;;;;;5050143;28;19952;-76
2024/02/27 12:18:04;;;;;;;;;;;;;;;;;;5049530;28;19931;-76
2024/02/27 12:20:30;;;;;;;;;;;;;;;;;;5049324;28;19917;-77
2024/02/27 12:22:56;;;;;;;;;;;;;;;;;;5049925;28;19915;-76
2024/02/27 12:25:22;;;;;;;;;;;;;;;;;;5049769;28;20378;-76
2024/02/27 12:27:48;;;;;;;;;;;;;;;;;;5049832;28;19913;-76
2024/02/27 12:30:13;;;;;;;;;;;;;;;;;;5049998;28;19916;-76
2024/02/27 12:32:39;;;;;;;;;;;;;;;;;;5048829;28;19913;-76
2024/02/27 12:35:05;;;;;;;;;;;;;;;;;;5049625;28;19909;-76
2024/02/27 12:37:31;;;;;;;;;;;;;;;;;;5049417;28;20074;-76
2024/02/27 12:39:58;;;;;;;;;;;;;;;;;;5049064;28;19916;-76
2024/02/27 12:42:24;;;;;;;;;;;;;;;;;;5038971;28;19941;-77
2024/02/27 12:44:50;;;;;;;;;;;;;;;;;;5069475;28;19960;-76
2024/02/27 12:47:16;;;;;;;;;;;;;;;;;;5057853;28;19966;-76
2024/02/27 12:49:42;;;;;;;;;;;;;;;;;;5056957;28;19935;-76
2024/02/27 12:52:08;;;;;;;;;;;;;;;;;;5069224;28;19913;-76
2024/02/27 12:54:33;;;;;;;;;;;;;;;;;;5066244;28;19908;-77
2024/02/27 12:56:59;;;;;;;;;;;;;;;;;;5048119;28;19912;-76
2024/02/27 12:59:25;;;;;;;;;;;;;;;;;;5048659;28;19917;-76
2024/02/27 13:01:51;;;;;;;;;;;;;;;;;;5048471;28;20004;-76
2024/02/27 13:04:17;;;;;;;;;;;;;;;;;;5036910;28;19909;-76
2024/02/27 13:06:43;;;;;;;;;;;;;;;;;;5047854;28;20011;-76
2024/02/27 13:09:09;;;;;;;;;;;;;;;;;;5049158;28;20011;-76
2024/02/27 13:11:35;;;;;;;;;;;;;;;;;;5048685;28;19913;-77
2024/02/27 13:14:01;;;;;;;;;;;;;;;;;;5049003;28;19944;-76
2024/02/27 13:16:27;;;;;;;;;;;;;;;;;;5048865;28;19908;-76
2024/02/27 13:18:52;;;;;;;;;;;;;;;;;;5048492;28;19927;-76
2024/02/27 13:21:21;;;;;;;;;;;;;;;;;;5048762;28;20012;-76
2024/02/27 13:23:47;;;;;;;;;;;;;;;;;;5048917;28;19909;-76
2024/02/27 13:26:13;;;;;;;;;;;;;;;;;;5048545;28;19919;-76
2024/02/27 13:28:39;;;;;;;;;;;;;;;;;;5045341;28;19920;-76
2024/02/27 13:31:04;;;;;;;;;;;;;;;;;;5042477;28;19917;-76
2024/02/27 13:33:30;;;;;;;;;;;;;;;;;;5048659;28;19909;-76
2024/02/27 13:35:56;;;;;;;;;;;;;;;;;;5049374;28;20016;-76
2024/02/27 13:38:23;;;;;;;;;;;;;;;;;;5044524;28;19949;-75
2024/02/27 13:40:48;;;;;;;;;;;;;;;;;;5043299;28;19913;-76
2024/02/27 13:43:14;;;;;;;;;;;;;;;;;;5037137;28;20412;-77
2024/02/27 13:45:40;;;;;;;;;;;;;;;;;;5035048;28;19956;-76
2024/02/27 13:48:06;;;;;;;;;;;;;;;;;;5048372;28;19909;-76
2024/02/27 13:50:32;;;;;;;;;;;;;;;;;;5048725;28;19913;-77
2024/02/27 13:52:58;;;;;;;;;;;;;;;;;;5051125;28;19912;-76
2024/02/27 13:55:24;;;;;;;;;;;;;;;;;;5040203;28;19919;-76
2024/02/27 13:57:50;;;;;;;;;;;;;;;;;;5039450;28;19954;-77
2024/02/27 14:00:16;;;;;;;;;;;;;;;;;;5040036;28;19921;-76
2024/02/27 14:02:41;;;;;;;;;;;;;;;;;;5047217;28;20035;-76
2024/02/27 14:05:07;;;;;;;;;;;;;;;;;;5047705;28;19924;-76
2024/02/27 14:07:33;;;;;;;;;;;;;;;;;;5047718;28;19916;-77
2024/02/27 14:09:59;;;;;;;;;;;;;;;;;;5046131;28;20561;-77
2024/02/27 14:12:25;;;;;;;;;;;;;;;;;;5035862;28;19921;-77
2024/02/27 14:14:51;;;;;;;;;;;;;;;;;;5042983;28;19916;-78
2024/02/27 14:17:16;;;;;;;;;;;;;;;;;;5045484;28;20382;-80
2024/02/27 14:19:42;;;;;;;;;;;;;;;;;;5044920;28;20307;-77
2024/02/27 14:22:08;;;;;;;;;;;;;;;;;;5043426;28;20390;-77
2024/02/27 14:24:34;;;;;;;;;;;;;;;;;;5044543;28;19928;-77
2024/02/27 14:27:01;;;;;;;;;;;;;;;;;;5044695;28;19928;-77
2024/02/27 14:29:26;;;;;;;;;;;;;;;;;;5044856;28;20051;-76
2024/02/27 14:31:52;;;;;;;;;;;;;;;;;;5045607;28;20003;-80
2024/02/27 14:34:19;;;;;;;;;;;;;;;;;;5044120;28;19913;-80
2024/02/27 14:36:45;;;;;;;;;;;;;;;;;;5045678;28;19913;-78
2024/02/27 14:39:12;;;;;;;;;;;;;;;;;;5044588;28;20159;-76
2024/02/27 14:41:37;;;;;;;;;;;;;;;;;;5047946;28;20034;-78
2024/02/27 14:44:04;;;;;;;;;;;;;;;;;;5050249;28;19920;-77
2024/02/27 14:46:30;;;;;;;;;;;;;;;;;;5041008;28;20291;-79
2024/02/27 14:48:56;;;;;;;;;;;;;;;;;;5049269;28;19913;-78
2024/02/27 14:51:21;;;;;;;;;;;;;;;;;;5050572;28;20426;-77
2024/02/27 14:53:47;;;;;;;;;;;;;;;;;;5047312;28;19920;-76
2024/02/27 14:56:13;;;;;;;;;;;;;;;;;;5058983;28;19916;-77
2024/02/27 14:58:39;;;;;;;;;;;;;;;;;;5045866;28;19921;-78
2024/02/27 15:01:05;;;;;;;;;;;;;;;;;;5057131;28;19972;-77
2024/02/27 15:03:31;;;;;;;;;;;;;;;;;;5054757;28;19936;-79
2024/02/27 15:05:56;;;;;;;;;;;;;;;;;;5046859;28;20006;-76
2024/02/27 15:08:22;;;;;;;;;;;;;;;;;;5053015;28;19917;-77
2024/02/27 15:10:48;;;;;;;;;;;;;;;;;;5049528;28;19917;-77
2024/02/27 15:13:14;;;;;;;;;;;;;;;;;;5048995;28;19917;-77
2024/02/27 15:15:40;;;;;;;;;;;;;;;;;;5044868;28;19923;-78
2024/02/27 15:18:06;;;;;;;;;;;;;;;;;;5048032;28;20193;-78
2024/02/27 15:20:32;;;;;;;;;;;;;;;;;;5044076;28;19917;-78
2024/02/27 15:22:57;;;;;;;;;;;;;;;;;;5044688;28;19916;-77
2024/02/27 15:25:23;;;;;;;;;;;;;;;;;;5048061;28;19920;-76
2024/02/27 15:27:49;;;;;;;;;;;;;;;;;;5048317;28;19916;-77
2024/02/27 15:30:15;;;;;;;;;;;;;;;;;;5047257;28;19955;-77
2024/02/27 15:32:41;;;;;;;;;;;;;;;;;;5049608;28;20015;-77
2024/02/27 15:35:07;;;;;;;;;;;;;;;;;;5047027;28;19920;-77
2024/02/27 15:37:33;;;;;;;;;;;;;;;;;;5048678;28;19913;-77
2024/02/27 15:39:58;;;;;;;;;;;;;;;;;;5048723;28;19920;-76
2024/02/27 15:42:24;;;;;;;;;;;;;;;;;;5048783;28;19917;-76
2024/02/27 15:44:50;;;;;;;;;;;;;;;;;;5047823;28;19928;-77
2024/02/27 15:47:16;;;;;;;;;;;;;;;;;;5047993;28;19916;-77
2024/02/27 15:49:42;;;;;;;;;;;;;;;;;;5048430;28;19917;-76
2024/02/27 15:52:09;;;;;;;;;;;;;;;;;;5046210;28;19963;-77
2024/02/27 15:54:35;;;;;;;;;;;;;;;;;;5045605;28;19959;-77
2024/02/27 15:57:01;;;;;;;;;;;;;;;;;;5046468;28;19937;-77
2024/02/27 15:59:27;;;;;;;;;;;;;;;;;;5060209;28;19924;-76
2024/02/27 16:01:52;;;;;;;;;;;;;;;;;;5052766;28;19950;-76
2024/02/27 16:04:19;;;;;;;;;;;;;;;;;;5055178;28;19941;-77
2024/02/27 16:06:44;;;;;;;;;;;;;;;;;;5052179;28;19921;-76
2024/02/27 16:09:10;;;;;;;;;;;;;;;;;;5042453;28;19970;-76
2024/02/27 16:11:36;;;;;;;;;;;;;;;;;;5053776;28;19913;-78
2024/02/27 16:14:02;;;;;;;;;;;;;;;;;;5038390;28;19924;-77
2024/02/27 16:16:28;;;;;;;;;;;;;;;;;;5041769;28;20058;-77
2024/02/27 16:18:55;;;;;;;;;;;;;;;;;;5049293;28;19921;-77
2024/02/27 16:21:21;;;;;;;;;;;;;;;;;;5044716;28;19923;-77
2024/02/27 16:23:47;;;;;;;;;;;;;;;;;;5050300;28;20244;-77
2024/02/27 16:26:13;;;;;;;;;;;;;;;;;;5050879;28;19983;-77
2024/02/27 16:28:39;;;;;;;;;;;;;;;;;;5034175;28;20386;-79
2024/02/27 16:31:05;;;;;;;;;;;;;;;;;;5048261;28;20452;-79
2024/02/27 16:33:30;;;;;;;;;;;;;;;;;;5048395;28;19948;-78
2024/02/27 16:35:56;;;;;;;;;;;;;;;;;;5048920;28;19912;-79
2024/02/27 16:38:22;;;;;;;;;;;;;;;;;;5036803;28;19942;-79